Impacts METAR Board
IDs:

KEWR - Newark Intl, NJ, US

Updated at: 0700 UTC 24 Jan 2019
Potential Impact None Slight Moderate High
Time 23/19Z 23/20Z 23/21Z 23/22Z 23/23Z 24/00Z 24/01Z 24/02Z 24/03Z 24/04Z 24/05Z 24/06Z 24/07Z
Temp42 45 47 47 44 42 42 44 46 46 47 52 55
Dewpt24 26 29 31 32 34 34 35 37 38 41 47 50
Altim30.19 30.14 30.12 30.09 30.06 30.04 30.02 29.98 29.97 29.94 29.92 29.88 29.85
VIS10 10 10 10 10 10 10 10 10 10 10 10 10
CIG38 55 50 46 55 100 100 50 55 60 26 24 22
CoverOVCBKNOVCOVCOVCBKNBKNOVCOVCOVCOVCOVCOVC
FltCatVFRVFRVFRVFRVFRVFRVFRVFRVFRVFRMVFRMVFRMVFR
WX-----------------------RA--
WDir2001801901801000011000170180180
WSpd8 6 8 3 3 0 0 3 0 0 3 8 12
WGst-- -- -- -- -- -- -- -- -- -- -- -- --
Raw hourly METARs
KEWR 231851Z 20008KT 10SM FEW028 BKN038 OVC070 06/M04 A3019 RMK AO2 SLP222 T00561044
KEWR 231951Z 18006KT 10SM SCT046 BKN055 BKN095 07/M03 A3014 RMK AO2 SLP206 T00721033 $
KEWR 232051Z 19008KT 10SM FEW045 BKN050 OVC095 08/M02 A3012 RMK AO2 SLP198 T00831017 56036 $
KEWR 232151Z 18003KT 10SM FEW042 BKN046 OVC055 08/M01 A3009 RMK AO2 SLP188 T00831006 $
KEWR 232251Z 10003KT 10SM SCT045 BKN055 OVC250 07/00 A3006 RMK AO2 SLP177 T00670000
KEWR 232351Z 00000KT 10SM FEW045 FEW060 BKN100 BKN250 06/01 A3004 RMK AO2 SLP173 T00560011 10083 20039 56025
KEWR 240051Z 00000KT 10SM FEW045 BKN100 BKN250 06/01 A3002 RMK AO2 SLP165 T00560011
KEWR 240151Z 11003KT 10SM BKN050 BKN100 OVC250 07/02 A2998 RMK AO2 SLP151 T00670017
KEWR 240251Z 00000KT 10SM BKN055 OVC100 08/03 A2997 RMK AO2 SLP146 T00780028 56026
KEWR 240351Z 00000KT 10SM FEW032 OVC060 08/03 A2994 RMK AO2 SLP138 T00780033
KEWR 240451Z 17003KT 10SM BKN026 OVC050 08/05 A2992 RMK AO2 RAB18E26 SLP132 P0000 T00830050 400831028
KEWR 240551Z 18008KT 10SM -RA OVC024 11/08 A2988 RMK AO2 RAB20 SLP119 P0000 60000 T01110083 10111 20050 58027
KEWR 240651Z 18012KT 10SM FEW014 OVC022 13/10 A2985 RMK AO2 RAE50 SLP106 P0000 T01280100



Page loaded:  07:11 UTC  |   11:11 PM Pacific  |   12:11 AM Mountain  |   01:11 AM Central  |   02:11 AM Eastern

 

ADVISORIES

FORECASTS

FORECASTS

OBSERVATIONS

USER TOOLS

ABOUT US